Time;durP1;ratioP1;P1;durP2;ratioP2;P2;SDS_P1;SDS_P2;PMS_P1;PMS_P2;Temp;Humidity;BMP_temperature;BMP_pressure;BME280_temperature;BME280_humidity;BME280_pressure;Samples;Min_cycle;Max_cycle;Signal;HPM_P1;HPM_P2
2022/06/05 00:00:49;;;;;;;4.80;3.53;;;;;;;19.00;100.00;100209.89;1793135;79;21035;-57
2022/06/05 00:03:35;;;;;;;4.73;3.60;;;;;;;18.89;100.00;100202.31;1798748;79;20959;-64
2022/06/05 00:06:17;;;;;;;8.00;4.60;;;;;;;18.79;100.00;100203.45;1795304;79;21041;-61
2022/06/05 00:08:55;;;;;;;4.57;3.53;;;;;;;18.81;100.00;100211.42;1786700;79;20991;-63
2022/06/05 00:11:23;;;;;;;4.77;3.03;;;;;;;18.80;100.00;100207.72;1796417;79;21020;-57
2022/06/05 00:13:54;;;;;;;5.03;3.33;;;;;;;18.74;100.00;100209.97;1794992;79;20974;-57
2022/06/05 00:16:25;;;;;;;5.37;3.55;;;;;;;18.78;100.00;100216.37;1795777;79;26910;-57
2022/06/05 00:18:54;;;;;;;4.90;3.37;;;;;;;18.68;100.00;100204.59;1794424;79;21036;-67
2022/06/05 00:21:21;;;;;;;4.47;3.57;;;;;;;18.68;100.00;100205.91;1799800;79;20932;-57
2022/06/05 00:23:50;;;;;;;5.00;3.50;;;;;;;18.64;100.00;100200.83;1792699;79;20970;-57
2022/06/05 00:26:40;;;;;;;4.60;3.47;;;;;;;18.53;100.00;100200.88;1798817;79;21283;-59
2022/06/05 00:29:36;;;;;;;4.67;3.60;;;;;;;18.55;100.00;100194.30;1794350;79;21529;-58
2022/06/05 00:32:20;;;;;;;4.80;2.87;;;;;;;18.55;100.00;100198.27;1787661;79;20985;-58
2022/06/05 00:34:49;;;;;;;5.03;3.30;;;;;;;18.53;100.00;100191.12;1783562;79;21032;-58
2022/06/05 00:37:23;;;;;;;4.03;2.93;;;;;;;18.53;100.00;100190.32;1801468;79;21246;-58
2022/06/05 00:40:29;;;;;;;4.80;2.80;;;;;;;18.48;100.00;100182.56;1795748;79;21107;-57
2022/06/05 00:43:00;;;;;;;5.87;2.57;;;;;;;18.51;100.00;100193.18;1800418;79;21914;-57
2022/06/05 00:45:28;;;;;;;4.50;2.80;;;;;;;18.54;100.00;100184.80;1796119;79;21010;-57
2022/06/05 00:47:56;;;;;;;4.73;2.70;;;;;;;18.56;100.00;100185.38;1799079;79;21006;-56
2022/06/05 00:50:28;;;;;;;3.83;2.40;;;;;;;18.55;100.00;100175.83;1796472;79;21900;-56
2022/06/05 00:52:56;;;;;;;;;;;;;;;18.47;100.00;100172.25;1804939;79;21539;-57
2022/06/05 00:55:24;;;;;;;3.47;2.30;;;;;;;18.47;100.00;100176.22;1798236;79;20625;-57
2022/06/05 00:57:53;;;;;;;6.57;2.27;;;;;;;18.45;100.00;100173.03;1797768;79;20998;-62
2022/06/05 01:00:25;;;;;;;3.60;2.47;;;;;;;18.44;100.00;100176.16;1776468;79;21522;-57
2022/06/05 01:02:55;;;;;;;4.17;2.67;;;;;;;18.45;100.00;100176.47;1795130;79;20919;-57
2022/06/05 01:05:25;;;;;;;5.33;2.40;;;;;;;18.43;100.00;100171.12;1737185;81;21061;-64
2022/06/05 01:07:52;;;;;;;4.17;2.60;;;;;;;18.24;100.00;100184.51;1734483;82;22336;-57
2022/06/05 01:10:21;;;;;;;3.97;2.50;;;;;;;18.27;100.00;100183.25;1788211;79;21514;-57
2022/06/05 01:13:25;;;;;;;3.70;2.43;;;;;;;18.20;100.00;100188.66;1796741;79;21048;-57
2022/06/05 01:15:57;;;;;;;3.47;2.30;;;;;;;18.07;100.00;100190.27;1785404;79;21429;-60
2022/06/05 01:18:47;;;;;;;;;;;;;;;17.97;100.00;100187.41;1799643;79;20987;-59
2022/06/05 01:21:44;;;;;;;3.53;2.17;;;;;;;18.09;100.00;100176.30;1782470;79;21172;-60
2022/06/05 01:24:49;;;;;;;4.17;2.70;;;;;;;18.01;100.00;100172.72;1795456;79;20978;-58
2022/06/05 01:27:20;;;;;;;4.27;2.00;;;;;;;18.00;100.00;100175.08;1792909;79;20980;-64
2022/06/05 01:29:51;;;;;;;4.28;1.87;;;;;;;17.99;100.00;100172.97;1799766;79;21092;-61
2022/06/05 01:32:53;;;;;;;3.97;1.90;;;;;;;17.94;100.00;100175.48;1801534;79;21016;-57
2022/06/05 01:35:37;;;;;;;3.00;1.90;;;;;;;17.93;100.00;100168.61;1798792;79;21344;-62
2022/06/05 01:38:09;;;;;;;2.83;1.87;;;;;;;17.92;100.00;100163.58;1787825;79;21591;-58
2022/06/05 01:40:40;;;;;;;3.00;1.77;;;;;;;17.93;100.00;100163.86;1795811;79;20993;-57
2022/06/05 01:43:11;;;;;;;3.87;2.50;;;;;;;17.93;100.00;100154.63;1771480;80;21008;-65
2022/06/05 01:45:49;;;;;;;3.83;1.97;;;;;;;18.06;100.00;100147.75;1737693;81;22317;-57
2022/06/05 01:48:29;;;;;;;3.77;2.17;;;;;;;18.06;100.00;100145.11;1768644;81;21298;-57
2022/06/05 01:50:59;;;;;;;3.27;2.13;;;;;;;18.05;100.00;100144.04;1731407;81;21074;-63
2022/06/05 01:53:40;;;;;;;4.17;2.43;;;;;;;18.07;100.00;100141.46;1738299;81;21110;-57
2022/06/05 01:56:36;;;;;;;6.10;2.45;;;;;;;18.10;100.00;100146.77;1768792;80;26879;-58
2022/06/05 01:59:21;;;;;;;5.23;2.23;;;;;;;18.12;100.00;100141.55;1760995;81;21109;-59
2022/06/05 02:01:53;;;;;;;4.63;1.70;;;;;;;18.08;100.00;100147.01;1757912;81;21250;-67
2022/06/05 02:04:49;;;;;;;3.00;2.27;;;;;;;17.92;100.00;100153.03;1768677;80;21019;-57
2022/06/05 02:07:34;;;;;;;2.97;1.73;;;;;;;17.89;100.00;100161.41;1761390;81;20983;-66
2022/06/05 02:10:10;;;;;;;2.87;1.93;;;;;;;17.92;100.00;100166.22;1741205;81;21831;-57
2022/06/05 02:12:38;;;;;;;4.00;1.73;;;;;;;17.90;100.00;100167.75;1769268;81;20996;-57
2022/06/05 02:15:06;;;;;;;2.57;1.80;;;;;;;17.98;100.00;100170.02;1768499;80;22140;-58
2022/06/05 02:17:34;;;;;;;4.03;2.00;;;;;;;18.02;100.00;100170.88;1768601;80;21028;-60
2022/06/05 02:20:01;;;;;;;3.80;2.10;;;;;;;18.15;100.00;100163.51;1743352;81;21058;-58
2022/06/05 02:22:34;;;;;;;3.30;1.80;;;;;;;18.46;100.00;100168.02;1776527;80;21085;-57
2022/06/05 02:25:01;;;;;;;3.85;1.92;;;;;;;18.84;100.00;100170.55;1743757;81;21691;-59
2022/06/05 02:27:28;;;;;;;4.87;1.60;;;;;;;19.08;100.00;100173.82;1768897;80;21569;-66
2022/06/05 02:29:56;;;;;;;2.30;1.70;;;;;;;19.25;100.00;100175.14;1768803;80;21573;-57
2022/06/05 02:32:59;;;;;;;3.87;1.57;;;;;;;19.44;100.00;100175.16;1769308;80;21008;-57
2022/06/05 02:35:36;;;;;;;2.37;1.37;;;;;;;19.57;100.00;100176.64;1768067;81;20999;-57
2022/06/05 02:38:44;;;;;;;3.43;1.90;;;;;;;19.52;100.00;100177.38;1770438;80;21067;-60
2022/06/05 02:41:33;;;;;;;3.97;1.50;;;;;;;19.40;100.00;100166.11;1792501;79;22085;-58
2022/06/05 02:44:29;;;;;;;2.53;1.70;;;;;;;19.36;100.00;100164.47;1763451;79;20970;-66
2022/06/05 02:47:22;;;;;;;3.73;2.23;;;;;;;19.37;100.00;100164.75;1786717;79;20966;-65
2022/06/05 02:49:55;;;;;;;2.50;1.60;;;;;;;19.40;100.00;100162.15;1793570;79;21053;-58
2022/06/05 02:52:23;;;;;;;5.00;1.90;;;;;;;19.35;100.00;100164.70;1793835;79;20943;-57
2022/06/05 02:55:12;;;;;;;3.30;1.60;;;;;;;19.34;100.00;100159.14;1792536;79;21946;-58
2022/06/05 02:57:39;;;;;;;3.13;1.40;;;;;;;19.34;100.00;100163.11;1795775;79;21069;-57
2022/06/05 03:00:10;;;;;;;2.80;1.60;;;;;;;19.25;100.00;100167.22;1796798;79;21047;-58
2022/06/05 03:05:24;;;;;;;4.83;2.00;;;;;;;19.23;100.00;100164.80;1786630;79;21090;-57
2022/06/05 03:07:52;;;;;;;4.50;1.73;;;;;;;19.34;100.00;100161.27;1782815;79;21153;-57
2022/06/05 03:10:19;;;;;;;3.10;1.60;;;;;;;19.55;100.00;100153.09;1780338;79;20856;-67
2022/06/05 03:12:48;;;;;;;3.30;1.73;;;;;;;19.91;100.00;100152.23;1781113;79;21389;-57
2022/06/05 03:15:15;;;;;;;2.93;1.63;;;;;;;20.43;100.00;100143.79;1781147;79;20958;-58
2022/06/05 03:17:43;;;;;;;2.93;2.30;;;;;;;20.92;100.00;100136.28;1768591;79;21113;-56
2022/06/05 03:20:13;;;;;;;3.03;2.20;;;;;;;21.18;100.00;100141.23;1781185;79;21161;-58
2022/06/05 03:22:41;;;;;;;3.17;1.90;;;;;;;21.30;100.00;100146.59;1780075;79;21442;-57
2022/06/05 03:25:09;;;;;;;3.37;2.00;;;;;;;21.46;100.00;100139.55;1780927;79;20998;-58
2022/06/05 03:27:36;;;;;;;4.37;2.27;;;;;;;21.83;100.00;100136.00;1781061;80;21571;-58
2022/06/05 03:30:04;;;;;;;3.90;2.30;;;;;;;22.26;100.00;100123.38;1781288;79;20940;-58
2022/06/05 03:32:31;;;;;;;4.00;2.43;;;;;;;22.67;100.00;100126.07;1780162;80;21804;-66
2022/06/05 03:34:59;;;;;;;4.13;2.27;;;;;;;22.92;100.00;100122.61;1780284;79;20974;-57
2022/06/05 03:37:26;;;;;;;3.63;2.43;;;;;;;22.98;100.00;100124.20;1781069;79;21062;-57
2022/06/05 03:39:53;;;;;;;4.07;2.33;;;;;;;23.18;100.00;100114.05;1781464;79;20978;-57
2022/06/05 03:42:21;;;;;;;3.43;2.20;;;;;;;23.32;100.00;100121.73;1788152;79;21045;-57
2022/06/05 03:44:48;;;;;;;4.23;2.90;;;;;;;23.47;100.00;100122.22;1780358;79;21229;-58
2022/06/05 03:47:15;;;;;;;3.70;2.30;;;;;;;23.58;100.00;100125.11;1781178;79;20978;-58
2022/06/05 03:49:42;;;;;;;4.40;2.50;;;;;;;23.63;99.93;100133.06;1780301;80;20999;-57
2022/06/05 03:52:10;;;;;;;4.20;2.77;;;;;;;23.48;100.00;100132.58;1781131;79;21041;-57
2022/06/05 03:54:39;;;;;;;4.67;2.73;;;;;;;23.41;100.00;100134.76;1780856;79;21086;-59
2022/06/05 03:57:06;;;;;;;4.37;2.73;;;;;;;23.24;100.00;100135.05;1781437;79;21437;-57
2022/06/05 03:59:35;;;;;;;6.07;3.13;;;;;;;23.05;100.00;100134.83;1781108;80;20883;-57
2022/06/05 04:02:04;;;;;;;5.67;2.40;;;;;;;22.82;100.00;100137.48;1780896;79;21135;-58
2022/06/05 04:04:32;;;;;;;3.80;2.73;;;;;;;22.58;100.00;100137.77;1781970;79;21063;-59
2022/06/05 04:06:59;;;;;;;3.90;2.57;;;;;;;22.44;100.00;100137.48;1776121;79;21370;-57
2022/06/05 04:09:26;;;;;;;5.03;2.50;;;;;;;22.32;100.00;100135.62;1796409;79;21152;-57
2022/06/05 04:11:53;;;;;;;3.80;2.50;;;;;;;22.32;100.00;100132.42;1801850;79;20935;-57
2022/06/05 04:14:21;;;;;;;3.73;2.60;;;;;;;22.29;100.00;100129.50;1796357;79;21034;-66
2022/06/05 04:16:48;;;;;;;4.60;2.57;;;;;;;22.29;100.00;100121.00;1799763;79;20926;-58
2022/06/05 04:19:15;;;;;;;4.63;2.67;;;;;;;22.31;100.00;100122.05;1798423;79;21417;-56
2022/06/05 04:21:46;;;;;;;4.73;2.40;;;;;;;22.29;100.00;100118.34;1795949;79;21161;-57
2022/06/05 04:24:13;;;;;;;3.80;2.37;;;;;;;22.40;100.00;100119.16;1796062;79;21225;-58
2022/06/05 04:26:42;;;;;;;5.63;2.97;;;;;;;22.44;100.00;100116.23;1799693;79;21005;-66
2022/06/05 04:29:09;;;;;;;4.37;3.13;;;;;;;22.44;100.00;100117.56;1800562;79;21026;-57
2022/06/05 04:31:41;;;;;;;4.50;2.73;;;;;;;22.32;100.00;100119.15;1802312;79;20977;-57
2022/06/05 04:34:11;;;;;;;5.92;2.98;;;;;;;22.22;100.00;100113.81;1795686;79;21229;-58
2022/06/05 04:36:38;;;;;;;5.67;3.00;;;;;;;22.15;100.00;100111.15;1795362;79;20932;-66
2022/06/05 04:39:05;;;;;;;5.27;2.50;;;;;;;22.23;100.00;100114.07;1795412;79;21104;-58
2022/06/05 04:41:32;;;;;;;4.77;2.70;;;;;;;22.51;100.00;100112.78;1800505;79;21065;-57
2022/06/05 04:44:00;;;;;;;5.37;3.10;;;;;;;23.05;100.00;100112.77;1802571;79;21046;-58
2022/06/05 04:46:28;;;;;;;5.23;2.50;;;;;;;23.68;100.00;100106.48;1799212;79;21110;-60
2022/06/05 04:48:55;;;;;;;4.30;2.50;;;;;;;24.43;100.00;100108.95;1800859;79;21080;-68
2022/06/05 04:51:23;;;;;;;5.03;2.33;;;;;;;25.11;100.00;100103.30;1795678;79;21401;-57
2022/06/05 04:53:51;;;;;;;3.83;2.70;;;;;;;25.71;91.06;100111.66;1801439;79;20863;-58
2022/06/05 04:56:21;;;;;;;6.45;3.30;;;;;;;26.00;85.94;100108.11;1798692;79;20963;-66
2022/06/05 04:58:49;;;;;;;5.93;3.00;;;;;;;26.09;83.09;100109.81;1799806;79;21156;-60
2022/06/05 05:01:26;;;;;;;6.62;3.75;;;;;;;26.04;81.46;100110.45;1795321;79;21433;-58
2022/06/05 05:04:02;;;;;;;5.03;3.52;;;;;;;25.81;78.83;100107.55;1799927;79;20934;-58
2022/06/05 05:06:30;;;;;;;4.70;3.52;;;;;;;25.53;80.56;100112.42;1799436;78;20987;-66
2022/06/05 05:08:58;;;;;;;4.58;3.62;;;;;;;25.13;84.45;100109.16;1796241;79;21936;-57
2022/06/05 05:11:26;;;;;;;7.37;3.37;;;;;;;24.75;89.56;100099.63;1799422;79;21160;-58
2022/06/05 05:13:54;;;;;;;4.93;3.10;;;;;;;24.36;96.47;100101.80;1793396;79;21041;-60
2022/06/05 05:16:23;;;;;;;6.13;3.00;;;;;;;24.07;100.00;100101.73;1797964;79;21057;-57
2022/06/05 05:18:50;;;;;;;5.57;3.50;;;;;;;23.94;100.00;100101.81;1799370;79;21053;-57
2022/06/05 05:21:20;;;;;;;4.93;3.17;;;;;;;23.70;100.00;100104.86;1796801;79;21100;-59
2022/06/05 05:23:47;;;;;;;5.83;2.80;;;;;;;23.53;100.00;100102.52;1799154;79;21264;-62
2022/06/05 05:26:26;;;;;;;5.80;3.10;;;;;;;23.42;100.00;100099.64;1795380;79;21101;-59
2022/06/05 05:28:54;;;;;;;5.03;2.63;;;;;;;23.42;100.00;100088.46;1794580;79;21991;-58
2022/06/05 05:31:24;;;;;;;4.07;2.40;;;;;;;23.44;100.00;100084.98;1795370;79;21043;-57
2022/06/05 05:33:52;;;;;;;4.90;2.58;;;;;;;23.39;100.00;100081.02;1794773;79;20990;-59
2022/06/05 05:36:21;;;;;;;3.13;2.30;;;;;;;23.73;100.00;100078.50;1800874;79;21294;-57
2022/06/05 05:44:22;;;;;;;5.03;2.53;;;;;;;25.66;100.00;100065.02;1799939;79;20943;-58
2022/06/05 05:46:49;;;;;;;3.55;2.40;;;;;;;26.38;92.84;100064.77;1793482;79;21312;-57
2022/06/05 05:49:17;;;;;;;3.22;2.25;;;;;;;26.85;84.73;100061.00;1799437;79;21151;-67
2022/06/05 05:51:44;;;;;;;3.55;2.30;;;;;;;27.29;80.10;100056.19;1795911;79;20970;-58
2022/06/05 05:54:11;;;;;;;6.70;2.08;;;;;;;27.41;71.83;100050.55;1793365;79;20966;-59
2022/06/05 05:56:39;;;;;;;3.80;2.45;;;;;;;27.45;71.84;100049.95;1795958;79;20935;-58
2022/06/05 05:59:07;;;;;;;5.47;2.85;;;;;;;27.40;69.20;100043.63;1797540;79;20958;-66
2022/06/05 06:01:34;;;;;;;5.85;2.70;;;;;;;27.33;71.61;100047.25;1800103;79;21697;-57
2022/06/05 06:04:01;;;;;;;4.45;2.27;;;;;;;27.32;72.87;100044.34;1796809;79;21411;-57
2022/06/05 06:06:32;;;;;;;5.50;2.33;;;;;;;27.21;71.27;100049.66;1800437;79;21021;-59
2022/06/05 06:09:00;;;;;;;4.10;2.52;;;;;;;26.85;72.62;100043.62;1799129;79;20986;-58
2022/06/05 06:11:28;;;;;;;4.67;2.52;;;;;;;26.45;77.00;100045.13;1795288;79;20974;-58
2022/06/05 06:13:55;;;;;;;7.37;3.30;;;;;;;26.31;81.32;100049.09;1795475;79;22105;-58
2022/06/05 06:16:26;;;;;;;5.67;2.52;;;;;;;26.43;85.50;100052.09;1795776;79;21495;-59
2022/06/05 06:18:54;;;;;;;3.12;2.20;;;;;;;26.79;83.46;100043.48;1801172;79;21575;-57
2022/06/05 06:21:22;;;;;;;4.08;2.15;;;;;;;27.21;79.12;100044.30;1795606;79;20975;-67
2022/06/05 06:23:49;;;;;;;2.87;1.82;;;;;;;27.64;75.03;100041.23;1785538;79;21691;-58
2022/06/05 06:26:16;;;;;;;3.17;2.00;;;;;;;28.23;74.33;100042.03;1799137;79;21245;-60
2022/06/05 06:28:43;;;;;;;3.22;2.20;;;;;;;28.84;69.55;100037.78;1795663;79;21089;-59
2022/06/05 06:31:12;;;;;;;3.58;1.87;;;;;;;29.54;63.79;100036.60;1804585;79;20975;-59
2022/06/05 06:33:40;;;;;;;5.45;2.27;;;;;;;30.10;59.45;100032.18;1795713;79;21100;-58
2022/06/05 06:36:10;;;;;;;4.25;2.02;;;;;;;30.79;58.63;100036.61;1795329;79;21049;-58
2022/06/05 06:38:37;;;;;;;4.85;2.40;;;;;;;31.18;52.91;100036.81;1794836;79;21219;-61
2022/06/05 06:41:07;;;;;;;3.27;1.90;;;;;;;31.09;49.65;100026.63;1794296;79;21377;-64
2022/06/05 06:43:34;;;;;;;3.05;1.92;;;;;;;30.80;50.41;100031.48;1737281;81;21514;-60
2022/06/05 06:46:02;;;;;;;2.52;1.70;;;;;;;30.49;50.71;100034.39;1734898;82;21588;-58
2022/06/05 06:48:29;;;;;;;4.37;2.87;;;;;;;30.27;49.89;100032.19;1801962;79;20983;-60
2022/06/05 06:50:57;;;;;;;6.53;2.22;;;;;;;29.91;51.26;100032.52;1794898;79;21148;-67
2022/06/05 06:53:25;;;;;;;3.17;2.20;;;;;;;29.66;52.71;100024.70;1737281;81;20973;-57
2022/06/05 06:55:52;;;;;;;2.95;2.50;;;;;;;29.61;54.98;100025.42;1735010;82;21005;-57
2022/06/05 06:58:21;;;;;;;4.87;2.80;;;;;;;29.60;54.73;100021.16;1796068;79;21544;-57
2022/06/05 07:00:48;;;;;;;3.70;2.30;;;;;;;29.63;55.02;100028.59;1795592;79;21037;-62
2022/06/05 07:03:17;;;;;;;3.50;2.50;;;;;;;29.51;54.98;100027.30;1795135;79;21009;-60
2022/06/05 07:05:46;;;;;;;4.33;2.02;;;;;;;29.31;54.50;100030.58;1802177;79;21097;-58
2022/06/05 07:08:14;;;;;;;3.72;2.50;;;;;;;29.16;55.33;100029.12;1795628;79;21010;-59
2022/06/05 07:10:41;;;;;;;6.65;2.27;;;;;;;29.31;55.50;100027.89;1788257;79;20978;-66
2022/06/05 07:13:10;;;;;;;2.52;1.98;;;;;;;29.61;56.34;100026.21;1798006;79;21532;-57
2022/06/05 07:15:38;;;;;;;2.70;2.10;;;;;;;30.09;54.63;100025.79;1796541;79;21802;-60
2022/06/05 07:18:06;;;;;;;5.10;2.08;;;;;;;30.52;52.71;100020.31;1803623;79;21104;-58
2022/06/05 07:20:42;;;;;;;4.53;2.00;;;;;;;30.76;50.96;100022.45;1797644;79;21050;-58
2022/06/05 07:23:10;;;;;;;4.58;1.85;;;;;;;31.29;53.66;100026.98;1801918;79;21661;-58
2022/06/05 07:25:38;;;;;;;3.47;1.80;;;;;;;32.32;48.43;100021.28;1796146;79;21010;-59
2022/06/05 07:28:06;;;;;;;1.90;1.60;;;;;;;32.93;44.89;100021.91;1795880;79;21269;-56
2022/06/05 07:30:33;;;;;;;3.02;1.50;;;;;;;33.04;44.56;100019.00;1800605;79;21038;-60
2022/06/05 07:33:01;;;;;;;2.55;1.50;;;;;;;33.36;43.77;100015.09;1800405;79;33264;-56
2022/06/05 07:35:30;;;;;;;2.20;1.40;;;;;;;33.65;42.99;100002.64;1800312;79;21005;-57
2022/06/05 07:37:57;;;;;;;3.77;1.62;;;;;;;33.79;42.25;100000.09;1802341;79;21057;-56
2022/06/05 07:40:25;;;;;;;2.08;1.60;;;;;;;34.00;42.85;100004.75;1796138;79;21611;-59
2022/06/05 07:42:52;;;;;;;3.50;1.55;;;;;;;34.14;39.60;99999.71;1803991;79;21061;-56
2022/06/05 07:45:19;;;;;;;3.02;1.80;;;;;;;34.16;40.49;100007.47;1798572;79;22063;-56
2022/06/05 07:47:46;;;;;;;2.98;1.72;;;;;;;34.55;39.21;100016.59;1799689;79;21046;-56
2022/06/05 07:50:15;;;;;;;4.78;1.98;;;;;;;34.81;39.09;100011.17;1797404;79;20973;-56
2022/06/05 07:55:29;;;;;;;3.25;1.45;;;;;;;34.92;39.11;100013.55;1797775;79;20868;-56
2022/06/05 07:57:57;;;;;;;2.50;1.60;;;;;;;35.04;38.19;100014.84;1796033;79;20951;-56
2022/06/05 08:00:24;;;;;;;2.62;1.80;;;;;;;34.90;37.97;100005.59;1802779;79;21101;-58
2022/06/05 08:02:52;;;;;;;2.67;1.50;;;;;;;34.77;38.40;100001.62;1796924;79;20951;-60
2022/06/05 08:05:20;;;;;;;2.40;1.70;;;;;;;34.64;39.38;100003.45;1796301;79;22205;-58
2022/06/05 08:07:47;;;;;;;2.58;1.50;;;;;;;34.67;38.00;100004.10;1783534;79;20974;-60
2022/06/05 08:10:16;;;;;;;3.05;1.92;;;;;;;34.93;38.28;99998.90;1781317;80;21054;-57
2022/06/05 08:12:44;;;;;;;2.90;1.60;;;;;;;35.39;37.17;99988.84;1779624;79;21003;-59
2022/06/05 08:15:13;;;;;;;3.08;1.70;;;;;;;35.52;36.09;99986.22;1780774;79;21001;-56
2022/06/05 08:17:41;;;;;;;3.20;1.67;;;;;;;35.10;36.58;99985.54;1780479;79;21443;-56
2022/06/05 08:20:09;;;;;;;2.77;1.70;;;;;;;34.79;36.98;99980.40;1780524;79;20934;-55
2022/06/05 08:22:36;;;;;;;2.70;1.72;;;;;;;34.68;36.59;99973.95;1779830;79;21811;-57
2022/06/05 08:25:05;;;;;;;3.37;1.90;;;;;;;34.64;38.12;99976.38;1780095;79;21433;-56
2022/06/05 08:27:32;;;;;;;3.65;1.55;;;;;;;34.26;37.74;99976.41;1780784;80;20992;-56
2022/06/05 08:30:00;;;;;;;3.58;1.60;;;;;;;33.82;39.51;99971.02;1781159;79;21189;-56
2022/06/05 08:32:28;;;;;;;3.12;1.90;;;;;;;33.62;39.36;99972.23;1780914;79;21598;-60
2022/06/05 08:34:55;;;;;;;3.10;1.52;;;;;;;33.39;40.20;99967.12;1779683;79;21642;-56
2022/06/05 08:43:22;;;;;;;2.50;1.77;;;;;;;32.38;41.17;99973.28;1781022;79;21265;-57
2022/06/05 08:46:12;;;;;;;3.55;2.00;;;;;;;32.22;42.52;99971.25;1772810;79;21541;-67
2022/06/05 08:48:53;;;;;;;4.67;2.05;;;;;;;32.16;43.33;99974.48;1780768;79;20960;-57
2022/06/05 08:51:40;;;;;;;4.50;2.12;;;;;;;32.14;44.36;99978.09;1780862;79;21069;-65
2022/06/05 08:54:18;;;;;;;5.20;2.08;;;;;;;32.35;44.01;99969.37;1780621;80;21087;-57
2022/06/05 08:56:51;;;;;;;2.85;2.17;;;;;;;32.68;43.88;99965.78;1780348;79;21148;-57
2022/06/05 08:59:26;;;;;;;5.17;2.22;;;;;;;33.35;42.44;99962.20;1776950;79;21500;-59
2022/06/05 09:02:04;;;;;;;4.50;2.47;;;;;;;34.05;41.09;99965.27;1762039;80;21961;-56
2022/06/05 09:04:37;;;;;;;4.00;2.05;;;;;;;34.53;40.58;99944.99;1759966;80;20993;-61
2022/06/05 09:07:06;;;;;;;2.02;1.40;;;;;;;34.91;38.73;99936.16;1762244;79;21441;-68
2022/06/05 09:09:57;;;;;;;2.87;1.87;;;;;;;35.12;37.79;99934.51;1760293;81;21711;-57
2022/06/05 09:12:38;;;;;;;3.08;1.90;;;;;;;35.19;38.10;99940.62;1760364;80;21048;-59
2022/06/05 09:15:23;;;;;;;3.90;1.77;;;;;;;34.94;39.08;99937.39;1759711;81;21049;-59
2022/06/05 09:17:55;;;;;;;2.70;1.42;;;;;;;34.95;38.08;99941.66;1723052;82;21015;-59
2022/06/05 09:20:49;;;;;;;3.67;1.70;;;;;;;34.79;37.26;99945.77;1764464;80;21041;-62
2022/06/05 09:23:24;;;;;;;3.17;1.75;;;;;;;34.30;38.21;99928.59;1765265;80;21137;-61
2022/06/05 09:26:13;;;;;;;1.95;1.50;;;;;;;33.91;37.74;99932.45;1759882;81;21007;-59
2022/06/05 09:29:10;;;;;;;4.28;1.90;;;;;;;33.62;39.69;99936.32;1760635;81;21522;-61
2022/06/05 09:32:03;;;;;;;3.80;2.12;;;;;;;33.50;40.27;99934.47;1708385;81;21364;-60
2022/06/05 09:34:38;;;;;;;3.62;1.70;;;;;;;33.11;40.58;99938.73;1756861;81;21117;-68
2022/06/05 09:37:24;;;;;;;4.72;1.50;;;;;;;32.68;42.28;99942.84;1760222;81;21237;-62
2022/06/05 09:40:15;;;;;;;3.12;1.77;;;;;;;32.79;42.21;99939.13;1749998;81;21114;-63
2022/06/05 09:43:00;;;;;;;2.70;1.52;;;;;;;32.97;43.10;99943.17;1757254;81;21073;-57
2022/06/05 09:45:53;;;;;;;2.27;1.57;;;;;;;33.16;43.25;99943.34;1757111;81;21015;-67
2022/06/05 09:48:29;;;;;;;3.72;1.50;;;;;;;33.62;41.50;99934.97;1756696;80;21387;-58
2022/06/05 09:50:56;;;;;;;4.42;1.82;;;;;;;34.13;41.13;99935.13;1760500;81;21219;-59
2022/06/05 09:53:31;;;;;;;4.80;1.70;;;;;;;34.25;38.41;99939.68;1759004;81;20982;-58
2022/06/05 09:56:21;;;;;;;3.17;1.70;;;;;;;34.04;38.77;99935.88;1760184;81;21043;-58
2022/06/05 09:59:07;;;;;;;2.87;1.75;;;;;;;34.08;38.66;99939.45;1748804;81;20976;-62
2022/06/05 10:01:38;;;;;;;3.30;2.02;;;;;;;34.06;38.73;99933.63;1758752;81;21767;-59
2022/06/05 10:04:05;;;;;;;3.37;1.90;;;;;;;34.12;38.84;99932.98;1760888;80;21200;-60
2022/06/05 10:06:46;;;;;;;3.50;1.92;;;;;;;34.14;37.39;99925.89;1725447;80;20993;-65
2022/06/05 10:09:16;;;;;;;2.20;1.85;;;;;;;33.68;38.40;99928.73;1769492;81;21550;-57
2022/06/05 10:12:00;;;;;;;2.90;1.98;;;;;;;33.36;39.51;99939.44;1769796;80;20913;-57
2022/06/05 10:14:47;;;;;;;3.72;2.10;;;;;;;33.39;39.68;99932.01;1768314;81;21544;-67
2022/06/05 10:17:42;;;;;;;3.75;1.67;;;;;;;33.07;40.09;99929.20;1799175;79;21234;-58
2022/06/05 10:20:21;;;;;;;3.67;1.77;;;;;;;33.14;41.23;99923.20;1765199;81;21263;-61
2022/06/05 10:23:03;;;;;;;4.75;2.20;;;;;;;33.43;40.87;99921.51;1758075;79;21006;-56
2022/06/05 10:25:47;;;;;;;4.67;2.25;;;;;;;33.67;39.51;99919.84;1796064;79;21559;-58
2022/06/05 10:28:28;;;;;;;3.42;2.35;;;;;;;33.84;39.37;99922.23;1793280;79;21436;-58
2022/06/05 10:31:03;;;;;;;9.45;2.17;;;;;;;33.88;38.87;99920.39;1775286;79;21235;-67
2022/06/05 10:33:41;;;;;;;2.47;1.60;;;;;;;34.05;39.23;99917.16;1793927;79;21543;-60
2022/06/05 10:36:20;;;;;;;3.50;1.60;;;;;;;34.35;38.43;99909.36;1799845;79;21650;-58
2022/06/05 10:39:11;;;;;;;3.72;2.75;;;;;;;34.76;38.76;99910.70;1759059;81;20994;-58
2022/06/05 10:41:44;;;;;;;3.40;2.60;;;;;;;35.21;37.58;99912.03;1797642;79;21920;-60
2022/06/05 10:44:46;;;;;;;2.55;1.90;;;;;;;35.21;35.81;99905.84;1765678;79;21075;-59
2022/06/05 10:47:46;;;;;;;2.45;2.02;;;;;;;35.05;36.50;99904.56;1762600;81;20979;-58
2022/06/05 10:50:39;;;;;;;2.98;2.20;;;;;;;34.73;36.54;99912.75;1793379;79;20983;-61
2022/06/05 10:53:46;;;;;;;4.55;2.12;;;;;;;34.44;36.89;99914.58;1794737;79;21027;-59
2022/06/05 10:56:38;;;;;;;3.35;2.02;;;;;;;34.34;36.80;99911.86;1788393;79;20918;-68
2022/06/05 10:59:23;;;;;;;4.40;1.92;;;;;;;34.22;38.18;99902.50;1795469;79;21169;-59
2022/06/05 11:02:01;;;;;;;3.72;1.80;;;;;;;34.30;37.62;99911.00;1794705;79;21029;-64
2022/06/05 11:05:08;;;;;;;3.92;2.12;;;;;;;34.22;37.93;99908.69;1796282;79;21000;-63
2022/06/05 11:07:47;;;;;;;3.08;1.90;;;;;;;34.38;37.51;99909.45;1789588;79;21659;-58
2022/06/05 11:13:40;;;;;;;3.60;2.00;;;;;;;34.73;36.39;99903.28;1776728;80;21085;-67
2022/06/05 11:16:20;;;;;;;3.20;2.20;;;;;;;34.30;36.67;99911.78;1780483;79;20979;-59
2022/06/05 11:19:08;;;;;;;3.22;1.92;;;;;;;33.87;36.78;99914.78;1760988;80;21100;-56
2022/06/05 11:21:36;;;;;;;3.98;1.98;;;;;;;33.46;38.25;99916.02;1780555;79;21058;-56
2022/06/05 11:24:07;;;;;;;3.12;2.08;;;;;;;33.58;39.47;99911.90;1779832;79;21740;-63
2022/06/05 11:26:52;;;;;;;2.35;1.57;;;;;;;34.11;38.30;99904.38;1780665;79;21365;-58
2022/06/05 11:29:48;;;;;;;4.15;2.00;;;;;;;34.19;37.27;99900.48;1780310;79;21082;-58
2022/06/05 11:32:47;;;;;;;2.90;1.87;;;;;;;34.35;37.16;99895.84;1780342;79;21034;-62
2022/06/05 11:35:55;;;;;;;2.72;1.90;;;;;;;34.69;36.51;99894.87;1774718;79;21450;-59
2022/06/05 11:39:08;;;;;;;4.72;1.87;;;;;;;34.93;35.13;99893.27;1776284;79;20991;-67
2022/06/05 11:42:02;;;;;;;2.87;1.95;;;;;;;35.00;35.36;99896.13;1780941;79;21182;-58
2022/06/05 11:44:38;;;;;;;3.75;2.33;;;;;;;35.03;35.02;99890.00;1788566;79;20927;-56
2022/06/05 11:47:10;;;;;;;4.03;2.90;;;;;;;34.56;36.46;99888.80;1720495;80;20983;-59
2022/06/05 11:49:49;;;;;;;4.37;3.87;;;;;;;34.33;37.04;99884.02;1780530;79;21715;-58
2022/06/05 11:52:28;;;;;;;6.65;4.67;;;;;;;34.38;36.17;99881.61;1780134;79;21120;-61
2022/06/05 11:55:05;;;;;;;5.58;4.78;;;;;;;34.43;34.95;99881.89;1769742;79;21131;-60
2022/06/05 11:57:53;;;;;;;6.72;4.90;;;;;;;34.42;34.89;99885.17;1784208;79;21011;-59
2022/06/05 12:00:50;;;;;;;6.95;4.83;;;;;;;34.36;34.80;99883.87;1780772;79;21753;-61
2022/06/05 12:03:46;;;;;;;5.15;4.12;;;;;;;34.33;34.31;99879.18;1780370;79;21476;-63
2022/06/05 12:06:33;;;;;;;5.17;3.52;;;;;;;34.25;34.82;99877.45;1764175;79;21053;-57
2022/06/05 12:09:04;;;;;;;8.15;5.53;;;;;;;33.74;35.76;99877.34;1786691;78;21229;-58
2022/06/05 12:11:43;;;;;;;5.55;3.77;;;;;;;33.40;35.78;99874.13;1803519;78;21053;-58
2022/06/05 12:14:27;;;;;;;6.95;5.47;;;;;;;33.20;36.72;99872.44;1801758;78;20999;-57
2022/06/05 12:17:19;;;;;;;8.03;5.70;;;;;;;32.94;36.20;99876.34;1802945;78;21025;-58
2022/06/05 12:20:04;;;;;;;7.53;4.75;;;;;;;32.53;35.72;99870.11;1791279;78;21468;-58